Time;durP1;ratioP1;P1;durP2;ratioP2;P2;SDS_P1;SDS_P2;PMS_P1;PMS_P2;Temp;Humidity;BMP_temperature;BMP_pressure;BME280_temperature;BME280_humidity;BME280_pressure;Samples;Min_cycle;Max_cycle;Signal;HPM_P1;HPM_P2
2023/03/22 00:00:57;;;;;;;17.73;16.00;;;13.20;99.90;;;;;;5058410;28;20553;-79
2023/03/22 00:03:24;;;;;;;17.20;14.18;;;13.20;99.90;;;;;;5053794;28;20986;-76
2023/03/22 00:05:57;;;;;;;17.00;15.30;;;13.20;99.90;;;;;;5053188;28;20279;-76
2023/03/22 00:08:24;;;;;;;15.05;13.65;;;13.10;99.90;;;;;;5053130;28;20228;-76
2023/03/22 00:10:53;;;;;;;16.38;14.65;;;13.10;99.90;;;;;;5047711;28;20588;-77
2023/03/22 00:13:20;;;;;;;20.00;17.98;;;13.10;99.90;;;;;;5055835;28;20220;-79
2023/03/22 00:15:47;;;;;;;22.77;19.35;;;13.10;99.90;;;;;;5050694;28;20225;-76
2023/03/22 00:18:15;;;;;;;17.80;14.38;;;13.10;99.90;;;;;;5049815;28;20744;-79
2023/03/22 00:20:47;;;;;;;15.52;13.90;;;13.00;99.90;;;;;;5049063;28;20214;-79
2023/03/22 00:23:14;;;;;;;15.40;13.80;;;13.10;99.90;;;;;;5049565;28;20224;-76
2023/03/22 00:25:41;;;;;;;14.80;12.88;;;13.10;99.90;;;;;;5050812;28;20549;-76
2023/03/22 00:28:10;;;;;;;14.25;12.80;;;13.00;99.90;;;;;;5049245;28;20842;-77
2023/03/22 00:30:37;;;;;;;16.38;14.73;;;13.00;99.90;;;;;;5039797;28;20229;-76
2023/03/22 00:33:04;;;;;;;14.63;12.63;;;13.00;99.90;;;;;;5047429;28;20216;-79
2023/03/22 00:35:32;;;;;;;15.05;13.63;;;12.90;99.90;;;;;;5041245;28;20471;-79
2023/03/22 00:38:04;;;;;;;15.18;13.68;;;12.90;99.90;;;;;;5048881;28;20217;-79
2023/03/22 00:40:32;;;;;;;14.38;12.57;;;12.90;99.90;;;;;;5052989;28;20657;-79
2023/03/22 00:43:00;;;;;;;13.10;11.80;;;12.90;99.90;;;;;;5052786;28;20613;-79
2023/03/22 00:45:28;;;;;;;13.27;11.98;;;12.90;99.90;;;;;;5051325;28;22601;-78
2023/03/22 00:47:55;;;;;;;14.80;12.60;;;12.90;99.90;;;;;;5037679;28;20562;-79
2023/03/22 00:50:22;;;;;;;15.48;12.73;;;12.80;99.90;;;;;;5049140;28;20235;-78
2023/03/22 00:52:49;;;;;;;12.65;11.45;;;12.80;99.90;;;;;;5046652;28;20233;-79
2023/03/22 00:55:17;;;;;;;13.50;12.10;;;12.80;99.90;;;;;;5049671;28;20228;-78
2023/03/22 00:57:44;;;;;;;13.90;11.93;;;12.80;99.90;;;;;;5049814;28;20290;-76
2023/03/22 01:00:12;;;;;;;14.57;12.90;;;12.80;99.90;;;;;;5049836;28;20555;-76
2023/03/22 01:02:41;;;;;;;17.02;14.43;;;12.80;99.90;;;;;;5052603;28;20228;-78
2023/03/22 01:05:14;;;;;;;16.02;14.00;;;12.80;99.90;;;;;;5050320;28;20232;-79
2023/03/22 01:07:42;;;;;;;14.50;13.10;;;12.80;99.90;;;;;;5051310;28;20225;-76
2023/03/22 01:10:10;;;;;;;13.32;11.95;;;12.80;99.90;;;;;;5060834;28;20251;-79
2023/03/22 01:12:37;;;;;;;14.55;13.05;;;12.70;99.90;;;;;;5056625;28;20305;-78
2023/03/22 01:15:06;;;;;;;13.50;12.30;;;12.70;99.90;;;;;;5052269;28;20224;-75
2023/03/22 01:17:33;;;;;;;15.95;14.25;;;12.80;99.90;;;;;;5049782;28;20274;-78
2023/03/22 01:20:02;;;;;;;17.75;14.10;;;12.70;99.90;;;;;;5051056;28;20282;-79
2023/03/22 01:22:32;;;;;;;15.50;14.00;;;12.70;99.90;;;;;;5051904;28;20301;-78
2023/03/22 01:24:58;;;;;;;18.70;14.98;;;12.70;99.90;;;;;;5052816;28;20237;-78
2023/03/22 01:27:26;;;;;;;13.38;12.00;;;12.70;99.90;;;;;;5052216;28;20220;-78
2023/03/22 01:29:52;;;;;;;15.30;13.23;;;12.70;99.90;;;;;;5043046;28;20286;-78
2023/03/22 01:32:20;;;;;;;14.07;12.75;;;12.70;99.90;;;;;;5053128;28;20297;-78
2023/03/22 01:34:47;;;;;;;15.77;14.25;;;12.70;99.90;;;;;;5052250;28;20225;-76
2023/03/22 01:37:15;;;;;;;15.90;14.13;;;12.60;99.90;;;;;;5052747;28;20237;-76
2023/03/22 01:39:43;;;;;;;14.65;13.15;;;12.60;99.90;;;;;;5052588;28;20229;-78
2023/03/22 01:42:13;;;;;;;14.70;13.32;;;12.60;99.90;;;;;;5044190;28;20236;-79
2023/03/22 01:44:42;;;;;;;16.90;14.25;;;12.60;99.90;;;;;;5051546;28;20221;-76
2023/03/22 01:47:11;;;;;;;16.52;13.23;;;12.60;99.90;;;;;;5053190;28;20307;-78
2023/03/22 01:49:39;;;;;;;15.68;13.80;;;12.60;99.90;;;;;;5051799;28;20667;-76
2023/03/22 01:52:12;;;;;;;13.40;12.05;;;12.60;99.90;;;;;;5039129;28;20555;-78
2023/03/22 01:54:44;;;;;;;13.85;12.55;;;12.60;99.90;;;;;;5038040;28;20323;-79
2023/03/22 01:57:12;;;;;;;13.73;12.43;;;12.60;99.90;;;;;;5052826;28;20217;-78
2023/03/22 01:59:41;;;;;;;13.60;12.23;;;12.60;99.90;;;;;;5051761;28;20224;-78
2023/03/22 02:02:09;;;;;;;14.07;12.77;;;12.60;99.90;;;;;;5053175;28;20487;-78
2023/03/22 02:04:38;;;;;;;15.00;13.50;;;12.60;99.90;;;;;;5042330;28;20222;-78
2023/03/22 02:07:09;;;;;;;17.95;15.52;;;12.60;99.90;;;;;;5033018;28;20221;-78
2023/03/22 02:09:38;;;;;;;16.58;14.50;;;12.60;99.90;;;;;;5031061;28;20334;-77
2023/03/22 02:12:16;;;;;;;15.65;14.10;;;12.50;99.90;;;;;;5032341;28;20221;-76
2023/03/22 02:15:02;;;;;;;15.70;12.73;;;12.50;99.90;;;;;;5031899;28;20247;-76
2023/03/22 02:17:38;;;;;;;17.17;15.50;;;12.50;99.90;;;;;;5038412;28;20658;-76
2023/03/22 02:20:41;;;;;;;13.95;12.52;;;12.50;99.90;;;;;;5052171;28;20244;-78
2023/03/22 02:23:41;;;;;;;15.93;14.35;;;12.50;99.90;;;;;;5052706;28;20226;-79
2023/03/22 02:27:09;;;;;;;15.10;13.52;;;12.50;99.90;;;;;;5052206;28;20270;-77
2023/03/22 02:29:43;;;;;;;15.43;13.88;;;12.50;99.90;;;;;;5051597;28;20228;-77
2023/03/22 02:32:45;;;;;;;16.88;14.75;;;12.50;99.90;;;;;;5052188;28;20577;-77
2023/03/22 02:35:30;;;;;;;18.42;13.32;;;12.40;99.90;;;;;;5044770;28;20290;-76
2023/03/22 02:38:24;;;;;;;15.23;13.55;;;12.40;99.90;;;;;;5051314;28;20598;-78
2023/03/22 02:40:58;;;;;;;14.90;13.50;;;12.40;99.90;;;;;;5052520;28;20225;-78
2023/03/22 02:43:33;;;;;;;14.90;13.18;;;12.50;99.90;;;;;;5051275;28;20274;-78
2023/03/22 02:46:07;;;;;;;15.65;14.15;;;12.50;99.90;;;;;;5058193;28;20216;-75
2023/03/22 02:48:41;;;;;;;15.93;14.32;;;12.50;99.90;;;;;;5060098;28;20281;-78
2023/03/22 02:51:13;;;;;;;14.40;13.00;;;12.50;99.90;;;;;;5063155;28;20238;-76
2023/03/22 02:53:46;;;;;;;15.88;13.32;;;12.50;99.90;;;;;;5071703;28;20630;-79
2023/03/22 02:56:21;;;;;;;15.23;13.63;;;12.60;99.90;;;;;;5053390;28;20278;-79
2023/03/22 02:58:52;;;;;;;14.47;12.70;;;12.50;99.90;;;;;;5051678;28;20627;-76
2023/03/22 03:01:22;;;;;;;14.05;12.77;;;12.60;99.90;;;;;;5051955;28;20566;-79
2023/03/22 03:03:54;;;;;;;16.27;14.18;;;12.60;99.90;;;;;;5051387;28;20231;-79
2023/03/22 03:06:24;;;;;;;15.20;13.60;;;12.60;99.90;;;;;;5051796;28;20621;-76
2023/03/22 03:08:53;;;;;;;15.77;13.77;;;12.70;99.90;;;;;;5051532;28;20958;-76
2023/03/22 03:11:21;;;;;;;18.23;14.40;;;12.70;99.90;;;;;;5051812;28;20248;-76
2023/03/22 03:13:49;;;;;;;18.20;16.30;;;12.70;99.90;;;;;;5051160;28;20463;-76
2023/03/22 03:16:20;;;;;;;15.48;13.30;;;12.70;99.90;;;;;;5051849;28;20221;-76
2023/03/22 03:18:52;;;;;;;13.93;12.52;;;12.70;99.90;;;;;;5033010;28;20626;-76
2023/03/22 03:21:33;;;;;;;13.98;12.48;;;12.70;99.90;;;;;;5032543;28;20244;-79
2023/03/22 03:24:11;;;;;;;16.63;14.95;;;12.70;99.90;;;;;;5032082;28;20217;-79
2023/03/22 03:26:47;;;;;;;15.52;13.57;;;12.70;99.90;;;;;;5033136;28;20221;-79
2023/03/22 03:29:20;;;;;;;13.90;12.60;;;12.70;99.90;;;;;;5040018;28;20232;-79
2023/03/22 03:31:54;;;;;;;14.27;12.88;;;12.70;99.90;;;;;;5038136;28;20259;-76
2023/03/22 03:34:26;;;;;;;15.65;13.55;;;12.60;99.90;;;;;;5041960;28;20233;-76
2023/03/22 03:36:56;;;;;;;14.60;13.23;;;12.60;99.90;;;;;;5045624;28;20225;-76
2023/03/22 03:39:26;;;;;;;15.10;13.50;;;12.60;99.90;;;;;;5049728;28;20682;-76
2023/03/22 03:41:56;;;;;;;15.15;13.85;;;12.50;99.90;;;;;;5044196;28;20229;-78
2023/03/22 03:44:24;;;;;;;15.43;13.02;;;12.50;99.90;;;;;;5050740;28;20626;-78
2023/03/22 03:46:55;;;;;;;16.30;14.68;;;12.50;99.90;;;;;;5052514;28;20225;-78
2023/03/22 03:49:25;;;;;;;14.38;12.32;;;12.50;99.90;;;;;;5054735;28;20294;-78
2023/03/22 03:51:54;;;;;;;16.05;13.48;;;12.50;99.90;;;;;;5054058;28;20312;-75
2023/03/22 03:54:23;;;;;;;16.25;13.70;;;12.50;99.90;;;;;;5055888;28;20254;-78
2023/03/22 03:56:50;;;;;;;16.60;14.98;;;12.40;99.90;;;;;;5055245;28;20690;-78
2023/03/22 03:59:19;;;;;;;14.68;13.10;;;12.40;99.90;;;;;;5055531;28;20286;-76
2023/03/22 04:01:51;;;;;;;14.52;13.13;;;12.40;99.90;;;;;;5054817;28;20231;-78
2023/03/22 04:04:24;;;;;;;14.10;12.80;;;12.40;99.90;;;;;;5054804;28;20584;-75
2023/03/22 04:06:52;;;;;;;12.10;10.90;;;12.40;99.90;;;;;;5054618;28;20221;-78
2023/03/22 04:09:20;;;;;;;12.80;11.60;;;12.40;99.90;;;;;;5054748;28;20267;-77
2023/03/22 04:11:47;;;;;;;14.50;13.05;;;12.40;99.90;;;;;;5053594;28;20520;-79
2023/03/22 04:14:14;;;;;;;14.02;12.73;;;12.40;99.90;;;;;;5054846;28;20225;-79
2023/03/22 04:16:43;;;;;;;15.07;12.70;;;12.40;99.90;;;;;;5053532;28;20225;-78
2023/03/22 04:19:13;;;;;;;14.00;12.60;;;12.40;99.90;;;;;;5054624;28;20224;-76
2023/03/22 04:21:40;;;;;;;14.63;13.20;;;12.40;99.90;;;;;;5054534;28;20229;-76
2023/03/22 04:24:07;;;;;;;14.43;13.02;;;12.40;99.90;;;;;;5053797;28;20278;-78
2023/03/22 04:26:35;;;;;;;14.13;12.68;;;12.40;99.90;;;;;;5054439;28;20225;-76
2023/03/22 04:29:03;;;;;;;15.27;12.48;;;12.40;99.90;;;;;;5053588;28;20274;-76
2023/03/22 04:31:30;;;;;;;13.70;12.25;;;12.40;99.90;;;;;;5054719;28;20564;-78
2023/03/22 04:34:04;;;;;;;15.10;13.52;;;12.40;99.90;;;;;;5053950;28;20235;-76
2023/03/22 04:36:35;;;;;;;13.48;12.13;;;12.40;99.90;;;;;;5054421;28;20293;-79
2023/03/22 04:39:05;;;;;;;14.63;13.13;;;12.40;99.90;;;;;;5053553;28;20300;-79
2023/03/22 04:41:32;;;;;;;16.67;14.35;;;12.40;99.90;;;;;;5054110;28;20309;-76
2023/03/22 04:44:01;;;;;;;14.60;13.00;;;12.40;99.90;;;;;;5059074;28;20223;-76
2023/03/22 04:46:32;;;;;;;14.05;12.75;;;12.30;99.90;;;;;;5074162;28;20223;-76
2023/03/22 04:49:00;;;;;;;14.63;13.23;;;12.30;99.90;;;;;;5072890;28;20685;-76
2023/03/22 04:51:29;;;;;;;14.15;12.77;;;12.30;99.90;;;;;;5065548;28;20229;-76
2023/03/22 04:53:56;;;;;;;13.07;11.68;;;12.30;99.90;;;;;;5054045;28;20566;-79
2023/03/22 04:56:25;;;;;;;14.60;12.75;;;12.30;99.90;;;;;;5053688;28;20259;-78
2023/03/22 04:58:52;;;;;;;15.32;13.05;;;12.40;99.90;;;;;;5053083;28;20615;-79
2023/03/22 05:01:19;;;;;;;13.45;12.15;;;12.40;99.90;;;;;;5053939;28;20279;-79
2023/03/22 05:03:46;;;;;;;12.95;11.60;;;12.30;99.90;;;;;;5053774;28;20228;-76
2023/03/22 05:06:18;;;;;;;14.40;13.00;;;12.40;99.90;;;;;;5053567;28;20220;-76
2023/03/22 05:08:45;;;;;;;18.23;13.80;;;12.40;99.90;;;;;;5053397;28;20559;-79
2023/03/22 05:11:15;;;;;;;14.50;13.00;;;12.40;99.90;;;;;;5053010;28;20248;-77
2023/03/22 05:13:42;;;;;;;15.57;13.25;;;12.40;99.90;;;;;;5053587;28;20236;-76
2023/03/22 05:16:10;;;;;;;14.77;13.20;;;12.40;99.90;;;;;;5053106;28;20229;-79
2023/03/22 05:18:41;;;;;;;13.55;12.15;;;12.40;99.90;;;;;;5053573;28;20221;-78
2023/03/22 05:21:12;;;;;;;14.10;12.65;;;12.40;99.90;;;;;;5053039;28;20580;-79
2023/03/22 05:23:41;;;;;;;13.73;12.35;;;12.40;99.90;;;;;;5053265;28;20263;-76
2023/03/22 05:26:09;;;;;;;14.95;13.55;;;12.40;99.90;;;;;;5052419;28;20399;-78
2023/03/22 05:28:37;;;;;;;12.07;10.88;;;12.40;99.90;;;;;;5052097;28;20224;-78
2023/03/22 05:31:04;;;;;;;12.07;10.90;;;12.40;99.90;;;;;;5052230;28;20259;-76
2023/03/22 05:33:33;;;;;;;14.30;12.77;;;12.40;99.90;;;;;;5053006;28;20236;-79
2023/03/22 05:36:00;;;;;;;13.35;11.82;;;12.50;99.90;;;;;;5052822;28;20562;-76
2023/03/22 05:38:28;;;;;;;14.85;13.27;;;12.50;99.90;;;;;;5053520;28;20236;-78
2023/03/22 05:40:56;;;;;;;15.23;13.13;;;12.50;99.90;;;;;;5052299;28;20244;-78
2023/03/22 05:43:23;;;;;;;18.02;13.07;;;12.50;99.90;;;;;;5053018;28;20291;-76
2023/03/22 05:45:50;;;;;;;16.23;12.85;;;12.50;99.90;;;;;;5052696;28;20267;-79
2023/03/22 05:48:17;;;;;;;13.30;12.05;;;12.50;99.90;;;;;;5052372;28;20227;-79
2023/03/22 05:50:45;;;;;;;14.13;12.60;;;12.50;99.90;;;;;;5052914;28;20254;-75
2023/03/22 05:53:12;;;;;;;13.48;12.07;;;12.50;99.90;;;;;;5052549;28;20538;-76
2023/03/22 05:55:39;;;;;;;15.02;12.57;;;12.50;99.90;;;;;;5053022;28;20231;-76
2023/03/22 05:58:09;;;;;;;13.57;11.43;;;12.50;99.90;;;;;;5058628;28;20233;-75
2023/03/22 06:00:37;;;;;;;14.23;12.80;;;12.40;99.90;;;;;;5071839;28;20216;-78
2023/03/22 06:03:04;;;;;;;13.90;11.75;;;12.40;99.90;;;;;;5073904;28;20217;-77
2023/03/22 06:05:31;;;;;;;12.73;11.32;;;12.40;99.90;;;;;;5073087;28;20790;-77
2023/03/22 06:07:59;;;;;;;13.80;11.38;;;12.50;99.90;;;;;;5071523;28;20228;-78
2023/03/22 06:10:27;;;;;;;14.52;12.93;;;12.50;99.90;;;;;;5056589;28;20331;-78
2023/03/22 06:12:54;;;;;;;16.48;13.10;;;12.40;99.90;;;;;;5053618;28;20232;-78
2023/03/22 06:15:23;;;;;;;12.43;11.15;;;12.40;99.90;;;;;;5052237;28;20248;-79
2023/03/22 06:17:50;;;;;;;12.40;10.75;;;12.40;99.90;;;;;;5052509;28;20740;-79
2023/03/22 06:20:18;;;;;;;12.25;11.02;;;12.40;99.90;;;;;;5052182;28;20224;-79
2023/03/22 06:22:45;;;;;;;12.50;11.20;;;12.40;99.90;;;;;;5052702;28;20224;-77
2023/03/22 06:25:14;;;;;;;14.00;12.60;;;12.30;99.90;;;;;;5052454;28;20252;-78
2023/03/22 06:27:42;;;;;;;15.85;13.73;;;12.40;99.90;;;;;;5052782;28;20289;-79
2023/03/22 06:30:09;;;;;;;16.40;13.45;;;12.30;99.90;;;;;;5052345;28;20229;-79
2023/03/22 06:32:38;;;;;;;17.35;14.18;;;12.30;99.90;;;;;;5052509;28;20252;-79
2023/03/22 06:35:06;;;;;;;13.98;12.48;;;12.40;99.90;;;;;;5052200;28;20601;-78
2023/03/22 06:37:32;;;;;;;13.98;12.48;;;12.40;99.90;;;;;;5052966;28;20266;-79
2023/03/22 06:39:59;;;;;;;13.13;10.85;;;12.40;99.90;;;;;;5051743;28;20224;-78
2023/03/22 06:42:29;;;;;;;14.50;11.68;;;12.50;99.90;;;;;;5051757;28;20286;-79
2023/03/22 06:44:56;;;;;;;14.07;11.70;;;12.50;99.90;;;;;;5052050;28;20283;-79
2023/03/22 06:47:24;;;;;;;16.45;13.35;;;12.50;99.90;;;;;;5051154;28;20236;-79
2023/03/22 06:49:52;;;;;;;13.25;11.32;;;12.50;99.90;;;;;;5052211;28;20654;-79
2023/03/22 06:52:22;;;;;;;12.57;11.18;;;12.60;99.90;;;;;;5051383;28;20228;-79
2023/03/22 06:54:52;;;;;;;14.38;12.25;;;12.60;99.90;;;;;;5052258;28;20229;-79
2023/03/22 06:57:19;;;;;;;13.45;12.00;;;12.60;99.90;;;;;;5051615;28;20220;-78
2023/03/22 06:59:46;;;;;;;13.85;12.50;;;12.60;99.90;;;;;;5052056;28;20698;-76
2023/03/22 07:02:16;;;;;;;15.15;12.10;;;12.60;99.90;;;;;;5050896;28;20570;-79
2023/03/22 07:04:46;;;;;;;13.70;12.30;;;12.60;99.90;;;;;;5052365;28;20221;-78
2023/03/22 07:07:14;;;;;;;16.15;13.55;;;12.60;99.90;;;;;;5051451;28;20682;-76
2023/03/22 07:09:41;;;;;;;15.90;13.57;;;12.70;99.90;;;;;;5051564;28;20221;-77
2023/03/22 07:12:08;;;;;;;13.20;11.90;;;12.70;99.90;;;;;;5051315;28;20286;-76
2023/03/22 07:14:35;;;;;;;16.05;14.35;;;12.70;99.90;;;;;;5051718;28;20316;-76
2023/03/22 07:17:02;;;;;;;16.30;12.93;;;12.70;99.90;;;;;;5051915;28;20232;-76
2023/03/22 07:19:30;;;;;;;15.45;13.25;;;12.70;99.90;;;;;;5051688;28;20249;-76
2023/03/22 07:21:57;;;;;;;15.02;12.93;;;12.70;99.90;;;;;;5055005;28;20221;-76
2023/03/22 07:24:27;;;;;;;13.55;12.25;;;12.70;99.90;;;;;;5054999;28;20224;-77
2023/03/22 07:26:54;;;;;;;14.85;12.48;;;12.80;99.90;;;;;;5055509;28;20285;-77
2023/03/22 07:29:21;;;;;;;13.98;12.52;;;12.80;99.90;;;;;;5055091;28;20290;-76
2023/03/22 07:31:48;;;;;;;13.98;12.52;;;12.80;99.90;;;;;;5055491;28;20663;-74
2023/03/22 07:34:15;;;;;;;16.40;14.80;;;12.80;99.90;;;;;;5054250;28;20216;-75
2023/03/22 07:36:59;;;;;;;13.52;12.13;;;12.80;99.90;;;;;;5055353;28;20241;-75
2023/03/22 07:39:28;;;;;;;15.15;13.50;;;12.80;99.90;;;;;;5053170;28;20239;-77
2023/03/22 07:41:57;;;;;;;16.33;13.57;;;12.80;99.90;;;;;;5055152;28;20667;-76
2023/03/22 07:44:24;;;;;;;15.27;12.25;;;12.80;99.90;;;;;;5054832;28;20283;-77
2023/03/22 07:46:51;;;;;;;16.13;13.75;;;12.80;99.90;;;;;;5055015;28;20234;-77
2023/03/22 07:49:19;;;;;;;16.02;12.27;;;12.90;99.90;;;;;;5044193;28;20538;-75
2023/03/22 07:51:46;;;;;;;14.87;11.90;;;12.90;99.90;;;;;;5054959;28;20231;-75
2023/03/22 07:54:13;;;;;;;14.30;12.73;;;13.00;99.90;;;;;;5054437;28;20497;-75
2023/03/22 07:56:43;;;;;;;15.95;12.65;;;13.10;99.90;;;;;;5055317;28;20473;-76
2023/03/22 07:59:10;;;;;;;14.07;11.90;;;13.10;99.90;;;;;;5054879;28;20562;-76
2023/03/22 08:01:37;;;;;;;13.70;12.30;;;13.20;99.90;;;;;;5054429;28;20615;-76
2023/03/22 08:04:04;;;;;;;17.50;13.70;;;13.30;99.90;;;;;;5055286;28;20468;-76
2023/03/22 08:06:32;;;;;;;13.43;11.77;;;13.30;99.90;;;;;;5054751;28;20216;-76
2023/03/22 08:09:00;;;;;;;19.67;13.37;;;13.40;99.90;;;;;;5054993;28;20759;-77
2023/03/22 08:11:27;;;;;;;12.27;11.02;;;13.50;99.90;;;;;;5054346;28;20957;-76
2023/03/22 08:13:55;;;;;;;13.87;12.47;;;13.60;99.90;;;;;;5054756;28;20697;-75
2023/03/22 08:16:22;;;;;;;21.30;17.17;;;13.70;99.90;;;;;;5057067;28;20509;-76
2023/03/22 08:18:53;;;;;;;13.20;11.50;;;13.80;99.90;;;;;;5057578;28;20237;-75
2023/03/22 08:21:20;;;;;;;15.60;11.93;;;13.80;99.90;;;;;;5054087;28;20489;-75
2023/03/22 08:23:47;;;;;;;17.10;13.23;;;13.90;99.90;;;;;;5054985;28;20467;-75
2023/03/22 08:26:14;;;;;;;18.75;15.45;;;14.00;99.90;;;;;;5042705;28;20507;-75
2023/03/22 08:28:41;;;;;;;15.70;14.17;;;14.00;99.90;;;;;;5053508;28;20221;-75
2023/03/22 08:31:14;;;;;;;16.83;13.77;;;14.10;99.90;;;;;;5054093;28;20478;-76
2023/03/22 08:33:46;;;;;;;13.53;12.10;;;14.10;99.90;;;;;;5053043;28;20461;-77
2023/03/22 08:36:15;;;;;;;14.70;13.10;;;14.20;99.90;;;;;;5054806;28;20777;-76
2023/03/22 08:38:44;;;;;;;14.47;13.17;;;14.30;99.90;;;;;;5069627;28;20545;-77
2023/03/22 08:41:11;;;;;;;18.33;15.43;;;14.20;99.90;;;;;;5070363;28;20478;-76
2023/03/22 08:43:38;;;;;;;15.63;14.03;;;14.30;99.90;;;;;;5053778;28;20630;-77
2023/03/22 08:46:06;;;;;;;18.83;15.67;;;14.30;99.90;;;;;;5054192;28;20541;-77
2023/03/22 08:48:36;;;;;;;15.73;14.13;;;14.30;99.90;;;;;;5053240;28;20829;-76
2023/03/22 08:51:04;;;;;;;17.43;15.73;;;14.40;99.90;;;;;;5054272;28;20537;-76
2023/03/22 08:53:31;;;;;;;13.40;12.10;;;14.40;99.90;;;;;;5061647;28;20861;-76
2023/03/22 08:56:00;;;;;;;13.80;12.40;;;14.50;99.90;;;;;;5073883;28;20466;-77
2023/03/22 08:58:28;;;;;;;17.03;14.23;;;14.50;99.90;;;;;;5069136;28;20471;-76
2023/03/22 09:00:55;;;;;;;18.73;16.83;;;14.50;99.90;;;;;;5053542;28;20520;-76
2023/03/22 09:03:22;;;;;;;29.90;24.20;;;14.50;99.90;;;;;;5053622;28;20467;-76
2023/03/22 09:05:51;;;;;;;14.00;12.57;;;14.60;99.90;;;;;;5053302;28;20452;-76
2023/03/22 09:08:18;;;;;;;15.37;13.77;;;14.70;99.90;;;;;;5053562;28;21090;-76
2023/03/22 09:10:46;;;;;;;14.33;12.83;;;14.70;99.90;;;;;;5051858;28;20564;-76
2023/03/22 09:13:15;;;;;;;11.77;10.53;;;14.70;99.90;;;;;;5051798;28;20953;-77
2023/03/22 09:15:43;;;;;;;14.37;13.00;;;14.80;99.90;;;;;;5052245;28;20478;-76
2023/03/22 09:18:10;;;;;;;11.70;10.60;;;14.80;99.90;;;;;;5052167;28;20477;-79
2023/03/22 09:20:38;;;;;;;13.20;11.87;;;14.90;99.90;;;;;;5053009;28;20494;-78
2023/03/22 09:23:06;;;;;;;12.27;10.97;;;15.00;99.90;;;;;;5052822;28;20533;-79
2023/03/22 09:25:33;;;;;;;15.30;13.17;;;15.00;99.90;;;;;;5052551;28;20481;-79
2023/03/22 09:28:01;;;;;;;13.13;11.67;;;15.00;99.90;;;;;;5053074;28;20502;-79
2023/03/22 09:30:28;;;;;;;12.53;11.23;;;15.10;99.90;;;;;;5052297;28;20520;-79
2023/03/22 09:32:55;;;;;;;13.07;11.77;;;15.20;99.90;;;;;;5053202;28;20498;-78
2023/03/22 09:35:25;;;;;;;11.20;10.10;;;15.20;99.90;;;;;;5053020;28;20491;-78
2023/03/22 09:37:53;;;;;;;11.07;9.43;;;15.30;99.90;;;;;;5053005;28;20463;-78
2023/03/22 09:40:25;;;;;;;9.77;8.93;;;15.40;99.90;;;;;;5052966;28;20486;-78
2023/03/22 09:42:58;;;;;;;12.17;10.97;;;15.50;99.90;;;;;;5052836;28;20459;-78
2023/03/22 09:45:34;;;;;;;11.47;9.97;;;15.50;99.90;;;;;;5053373;28;20464;-78
2023/03/22 09:48:04;;;;;;;12.50;11.40;;;15.60;99.90;;;;;;5053006;28;20477;-78
2023/03/22 09:50:33;;;;;;;11.53;10.27;;;15.70;99.90;;;;;;5053283;28;20510;-75
2023/03/22 09:53:00;;;;;;;12.43;10.70;;;15.70;99.90;;;;;;5052457;28;20563;-76
2023/03/22 09:55:37;;;;;;;10.83;9.73;;;15.80;99.90;;;;;;5052745;28;20467;-75
2023/03/22 09:58:17;;;;;;;10.57;9.23;;;15.90;99.90;;;;;;5052022;28;20475;-78
2023/03/22 10:00:48;;;;;;;15.50;13.87;;;16.00;99.90;;;;;;5051901;28;20507;-78
2023/03/22 10:03:28;;;;;;;11.87;10.70;;;16.00;99.90;;;;;;5052878;28;20846;-78
2023/03/22 10:05:59;;;;;;;12.70;11.30;;;16.10;99.90;;;;;;5052271;28;20863;-78
2023/03/22 10:08:36;;;;;;;12.20;9.83;;;16.10;99.90;;;;;;5052996;28;21011;-78
2023/03/22 10:11:14;;;;;;;12.37;9.73;;;16.30;99.90;;;;;;5051712;28;20856;-79
2023/03/22 10:13:48;;;;;;;13.30;11.90;;;16.30;99.90;;;;;;5052848;28;20782;-78
2023/03/22 10:16:25;;;;;;;11.83;10.47;;;16.40;99.90;;;;;;5053466;28;20520;-76
2023/03/22 10:19:01;;;;;;;11.63;10.63;;;16.40;99.90;;;;;;5041982;28;20482;-76
2023/03/22 10:21:29;;;;;;;12.03;10.70;;;16.50;99.90;;;;;;5053862;28;20467;-78
2023/03/22 10:23:59;;;;;;;8.23;7.43;;;16.60;99.90;;;;;;5053543;28;20888;-78
2023/03/22 10:26:32;;;;;;;9.23;8.00;;;16.70;99.90;;;;;;5053839;28;20486;-79
2023/03/22 10:29:14;;;;;;;10.30;9.40;;;16.70;99.90;;;;;;5052734;28;20479;-78
2023/03/22 10:31:47;;;;;;;9.20;8.27;;;16.70;99.90;;;;;;5053025;28;20572;-79
2023/03/22 10:34:26;;;;;;;9.50;8.60;;;16.80;99.90;;;;;;5052167;28;20458;-78
2023/03/22 10:36:55;;;;;;;10.03;8.90;;;16.90;99.90;;;;;;5052395;28;20471;-78
2023/03/22 10:39:30;;;;;;;11.80;9.53;;;16.90;99.90;;;;;;5056540;28;20471;-78
2023/03/22 10:42:01;;;;;;;10.20;9.27;;;17.00;99.90;;;;;;5052613;28;20470;-78
2023/03/22 10:44:33;;;;;;;9.87;8.50;;;17.00;99.90;;;;;;5052786;28;20486;-79
2023/03/22 10:47:06;;;;;;;11.00;8.40;;;17.00;99.90;;;;;;5051917;28;20463;-76
2023/03/22 10:49:44;;;;;;;12.17;10.50;;;17.00;99.90;;;;;;5051925;28;20479;-76
2023/03/22 10:52:23;;;;;;;9.07;8.17;;;17.00;99.90;;;;;;5050521;28;20494;-77
2023/03/22 10:54:50;;;;;;;8.17;7.37;;;17.10;99.90;;;;;;5052277;28;20474;-78
2023/03/22 10:57:19;;;;;;;8.17;7.37;;;17.10;99.90;;;;;;5055676;28;20470;-78
2023/03/22 10:59:47;;;;;;;7.73;7.03;;;17.00;99.90;;;;;;5056352;28;20467;-79
2023/03/22 11:02:20;;;;;;;11.13;8.13;;;17.10;99.90;;;;;;5055722;28;21957;-80
2023/03/22 11:04:54;;;;;;;10.50;7.63;;;17.10;99.90;;;;;;5057628;28;20491;-79
2023/03/22 11:07:37;;;;;;;10.00;9.00;;;17.00;99.90;;;;;;5057903;28;20475;-78
2023/03/22 11:10:29;;;;;;;8.10;7.27;;;17.00;99.90;;;;;;5057263;28;20494;-78
2023/03/22 11:13:13;;;;;;;8.30;7.57;;;17.10;99.90;;;;;;5028762;28;20478;-79
2023/03/22 11:15:42;;;;;;;8.60;7.70;;;17.10;99.90;;;;;;5058262;28;20467;-77
2023/03/22 11:18:17;;;;;;;11.33;8.30;;;17.10;99.90;;;;;;5057798;28;20455;-79
2023/03/22 11:20:55;;;;;;;10.67;9.77;;;17.20;99.90;;;;;;5058678;28;20453;-79
2023/03/22 11:23:24;;;;;;;8.70;7.77;;;17.20;99.90;;;;;;5059413;28;20463;-79
2023/03/22 11:25:55;;;;;;;5.83;5.23;;;17.30;99.90;;;;;;5058121;28;20481;-76
2023/03/22 11:28:34;;;;;;;9.13;8.30;;;17.30;99.90;;;;;;5058143;28;20499;-77
2023/03/22 11:31:05;;;;;;;7.10;6.40;;;17.30;99.90;;;;;;5057370;28;20522;-77
2023/03/22 11:33:33;;;;;;;7.90;6.87;;;17.20;99.90;;;;;;5059481;28;20532;-77
2023/03/22 11:36:02;;;;;;;7.70;6.83;;;17.20;99.90;;;;;;5060984;28;20513;-76
2023/03/22 11:38:35;;;;;;;5.63;5.10;;;17.20;99.90;;;;;;5063078;28;20482;-79
2023/03/22 11:41:05;;;;;;;6.10;5.20;;;17.10;99.90;;;;;;5056928;28;20459;-79
2023/03/22 11:43:39;;;;;;;5.27;4.77;;;17.10;99.90;;;;;;5056508;28;20471;-79
2023/03/22 11:46:08;;;;;;;7.77;7.00;;;17.10;99.90;;;;;;5055700;28;20454;-79
2023/03/22 11:48:37;;;;;;;5.67;4.97;;;17.20;99.90;;;;;;5056123;28;20471;-79
2023/03/22 11:51:08;;;;;;;7.30;5.80;;;17.20;99.90;;;;;;5056316;28;20468;-79
2023/03/22 11:53:38;;;;;;;6.03;4.80;;;17.20;99.90;;;;;;5044920;28;21003;-80
2023/03/22 11:56:07;;;;;;;6.50;5.90;;;17.20;99.90;;;;;;5057595;28;20481;-77
2023/03/22 11:58:58;;;;;;;5.60;5.10;;;17.30;99.90;;;;;;5056625;28;20478;-76
2023/03/22 12:01:35;;;;;;;5.47;4.60;;;17.30;99.90;;;;;;5056670;28;20530;-76
2023/03/22 12:04:07;;;;;;;5.10;4.27;;;17.30;99.90;;;;;;5059625;28;20470;-77
2023/03/22 12:06:38;;;;;;;4.87;4.47;;;17.30;99.90;;;;;;5054408;28;20463;-76
2023/03/22 12:09:16;;;;;;;8.10;4.23;;;17.30;99.90;;;;;;5053350;28;20508;-77
2023/03/22 12:11:47;;;;;;;6.90;6.00;;;17.40;99.90;;;;;;5054475;28;20548;-79
2023/03/22 12:14:24;;;;;;;5.97;5.13;;;17.50;99.90;;;;;;5053602;28;20973;-78
2023/03/22 12:16:56;;;;;;;6.33;5.57;;;17.60;99.90;;;;;;5054875;28;20475;-76
2023/03/22 12:26:16;;;;;;;7.13;6.10;;;17.70;99.90;;;;;;4973340;28;20454;-76
2023/03/22 12:28:48;;;;;;;8.47;5.60;;;17.70;99.90;;;;;;5450673;23;20499;-76
2023/03/22 12:31:25;;;;;;;5.13;4.73;;;17.70;99.90;;;;;;5014864;28;20468;-76
2023/03/22 12:33:59;;;;;;;5.00;4.40;;;17.60;99.90;;;;;;5014262;28;20476;-76
2023/03/22 12:36:35;;;;;;;5.30;4.90;;;17.60;99.90;;;;;;5015079;28;20473;-77
2023/03/22 12:39:06;;;;;;;5.93;4.67;;;17.60;99.90;;;;;;5033948;28;20543;-76
2023/03/22 12:41:39;;;;;;;5.13;4.73;;;17.70;99.90;;;;;;5025403;28;20476;-79
2023/03/22 12:44:13;;;;;;;5.30;4.60;;;17.70;99.90;;;;;;5020627;28;20535;-76
2023/03/22 12:46:49;;;;;;;6.53;5.93;;;17.70;99.90;;;;;;5025105;28;20488;-75
2023/03/22 12:49:21;;;;;;;5.40;4.90;;;17.70;99.90;;;;;;5038877;28;20459;-77
2023/03/22 12:51:51;;;;;;;8.27;5.53;;;17.70;99.90;;;;;;5049371;28;20460;-78
2023/03/22 12:54:22;;;;;;;5.87;4.90;;;17.80;99.90;;;;;;5030033;28;20465;-78